createdAt,value
2022-11-16T00:00:00.385Z,5.96
2022-11-16T00:01:40.131Z,5.95
2022-11-16T00:03:19.910Z,5.95
2022-11-16T00:04:59.671Z,5.92
2022-11-16T00:06:39.432Z,5.91
2022-11-16T00:08:19.207Z,5.92
2022-11-16T00:09:58.953Z,5.9
2022-11-16T00:11:38.720Z,5.89
2022-11-16T00:13:18.505Z,5.87
2022-11-16T00:14:58.252Z,5.87
2022-11-16T00:16:38.016Z,5.85
2022-11-16T00:18:17.773Z,5.85
2022-11-16T00:19:57.581Z,5.84
2022-11-16T00:21:37.318Z,5.83
2022-11-16T00:23:17.075Z,5.83
2022-11-16T00:24:56.834Z,5.82
2022-11-16T00:26:36.593Z,5.81
2022-11-16T00:28:16.362Z,5.8
2022-11-16T00:31:35.894Z,5.79
2022-11-16T00:34:55.430Z,5.77
2022-11-16T00:36:35.209Z,5.77
2022-11-16T00:38:14.953Z,5.77
2022-11-16T00:41:34.462Z,5.74
2022-11-16T00:43:14.229Z,5.73
2022-11-16T00:44:54.004Z,5.73
2022-11-16T00:46:33.777Z,5.73
2022-11-16T00:48:13.530Z,5.72
2022-11-16T00:51:33.057Z,5.69
2022-11-16T00:53:12.847Z,5.69
2022-11-16T00:54:52.590Z,5.67
2022-11-16T00:56:32.350Z,5.68
2022-11-16T00:58:12.101Z,5.67
2022-11-16T01:01:31.639Z,5.66
2022-11-16T01:03:11.418Z,5.65
2022-11-16T01:04:51.178Z,5.62
2022-11-16T01:08:10.697Z,5.62
2022-11-16T01:09:50.478Z,5.61
2022-11-16T01:11:30.230Z,5.59
2022-11-16T01:13:09.983Z,5.6
2022-11-16T01:14:49.742Z,5.59
2022-11-16T01:16:29.517Z,5.59
2022-11-16T01:18:09.296Z,5.57
2022-11-16T01:19:49.053Z,5.58
2022-11-16T01:21:28.811Z,5.56
2022-11-16T01:24:48.332Z,5.54
2022-11-16T01:26:28.126Z,5.52
2022-11-16T01:28:07.868Z,5.52
2022-11-16T01:31:27.387Z,5.52
2022-11-16T01:33:07.185Z,5.52
2022-11-16T01:34:46.918Z,5.52
2022-11-16T01:36:26.687Z,5.5
2022-11-16T01:38:06.451Z,5.5
2022-11-16T01:41:26.005Z,5.51
2022-11-16T01:43:05.739Z,5.51
2022-11-16T01:44:45.495Z,5.5
2022-11-16T01:46:25.255Z,5.5
2022-11-16T01:48:05.018Z,5.49
2022-11-16T01:51:24.579Z,5.47
2022-11-16T01:53:04.318Z,5.48
2022-11-16T01:54:44.085Z,5.47
2022-11-16T01:56:23.859Z,5.45
2022-11-16T01:58:03.626Z,5.44
2022-11-16T02:01:23.140Z,5.35
2022-11-16T02:03:02.922Z,5.43
2022-11-16T02:04:42.660Z,5.43
2022-11-16T02:06:22.437Z,5.42
2022-11-16T02:08:02.185Z,5.4
2022-11-16T02:11:21.727Z,5.4
2022-11-16T02:13:01.491Z,5.38
2022-11-16T02:14:41.243Z,5.39
2022-11-16T02:16:21.021Z,5.4
2022-11-16T02:18:00.771Z,5.38
2022-11-16T02:19:40.527Z,5.37
2022-11-16T02:21:20.300Z,5.38
2022-11-16T02:23:00.070Z,5.38
2022-11-16T02:24:39.831Z,5.37
2022-11-16T02:26:19.599Z,5.36
2022-11-16T02:27:59.351Z,5.35
2022-11-16T02:29:39.113Z,5.36
2022-11-16T02:31:18.890Z,5.34
2022-11-16T02:32:58.647Z,5.35
2022-11-16T02:34:38.415Z,5.33
2022-11-16T02:36:18.180Z,5.34
2022-11-16T02:37:57.929Z,5.32
2022-11-16T02:39:37.725Z,5.31
2022-11-16T02:41:17.470Z,5.3
2022-11-16T02:42:57.229Z,5.29
2022-11-16T02:44:36.999Z,5.31
2022-11-16T02:47:56.514Z,5.25
2022-11-16T02:49:36.289Z,5.26
2022-11-16T02:51:16.056Z,5.24
2022-11-16T02:54:35.586Z,5.25
2022-11-16T02:56:15.342Z,5.24
2022-11-16T02:57:55.111Z,5.24
2022-11-16T02:59:34.884Z,5.23
2022-11-16T03:01:14.628Z,5.22
2022-11-16T03:02:54.406Z,5.2
2022-11-16T03:04:34.164Z,5.22
2022-11-16T03:07:53.684Z,5.21
2022-11-16T03:09:33.461Z,5.21
2022-11-16T03:11:13.222Z,5.2
2022-11-16T03:12:53.006Z,5.19
2022-11-16T03:14:32.750Z,5.2
2022-11-16T03:17:52.267Z,5.19
2022-11-16T03:19:32.034Z,5.18
2022-11-16T03:21:11.806Z,5.17
2022-11-16T03:22:51.572Z,5.17
2022-11-16T03:24:31.322Z,5.17
2022-11-16T03:27:50.852Z,5.15
2022-11-16T03:29:30.628Z,5.17
2022-11-16T03:31:10.371Z,5.17
2022-11-16T03:32:50.151Z,5.16
2022-11-16T03:34:29.927Z,5.15
2022-11-16T03:36:09.675Z,5.15
2022-11-16T03:37:49.431Z,5.17
2022-11-16T03:41:08.971Z,5.17
2022-11-16T03:42:48.737Z,5.17
2022-11-16T03:44:28.540Z,5.16
2022-11-16T03:47:48.013Z,5.17
2022-11-16T03:51:07.549Z,5.17
2022-11-16T03:52:47.308Z,5.18
2022-11-16T03:54:27.080Z,5.17
2022-11-16T03:56:06.846Z,5.17
2022-11-16T03:59:26.375Z,5.17
2022-11-16T04:01:06.141Z,5.17
2022-11-16T04:02:45.897Z,5.17
2022-11-16T04:04:25.669Z,5.18
2022-11-16T04:06:05.430Z,5.17
2022-11-16T04:07:45.179Z,5.19
2022-11-16T04:09:24.947Z,5.16
2022-11-16T04:11:04.711Z,5.15
2022-11-16T04:12:44.476Z,5.14
2022-11-16T04:14:24.235Z,5.2
2022-11-16T04:17:43.763Z,5.19
2022-11-16T04:19:23.531Z,5.2
2022-11-16T04:21:03.298Z,5.19
2022-11-16T04:22:43.060Z,5.19
2022-11-16T04:24:22.817Z,5.2
2022-11-16T04:27:42.361Z,5.21
2022-11-16T04:29:22.106Z,5.22
2022-11-16T04:31:01.869Z,5.2
2022-11-16T04:32:41.647Z,5.22
2022-11-16T04:34:21.401Z,5.2
2022-11-16T04:37:40.964Z,5.22
2022-11-16T04:39:20.737Z,5.22
2022-11-16T04:41:00.464Z,5.24
2022-11-16T04:42:40.219Z,5.23
2022-11-16T04:44:19.997Z,5.23
2022-11-16T04:47:39.523Z,5.25
2022-11-16T04:49:19.281Z,5.24
2022-11-16T04:50:59.041Z,5.24
2022-11-16T04:52:38.807Z,5.26
2022-11-16T04:54:18.565Z,5.26
2022-11-16T04:57:38.118Z,5.26
2022-11-16T05:00:57.628Z,5.27
2022-11-16T05:02:37.386Z,5.27
2022-11-16T05:04:17.151Z,5.28
2022-11-16T05:05:56.921Z,5.28
2022-11-16T05:07:36.693Z,5.29
2022-11-16T05:09:16.454Z,5.3
2022-11-16T05:10:56.221Z,5.29
2022-11-16T05:12:35.968Z,5.3
2022-11-16T05:14:15.741Z,5.32
2022-11-16T05:15:55.506Z,5.3
2022-11-16T05:17:35.262Z,5.31
2022-11-16T05:19:15.044Z,5.32
2022-11-16T05:20:54.795Z,5.33
2022-11-16T05:22:34.558Z,5.34
2022-11-16T05:24:14.315Z,5.34
2022-11-16T05:25:54.093Z,5.35
2022-11-16T05:27:33.851Z,5.35
2022-11-16T05:29:13.620Z,5.36
2022-11-16T05:32:33.149Z,5.36
2022-11-16T05:34:12.910Z,5.37
2022-11-16T05:35:52.663Z,5.38
2022-11-16T05:37:32.449Z,5.34
2022-11-16T05:40:51.967Z,5.38
2022-11-16T05:42:31.723Z,5.38
2022-11-16T05:44:11.490Z,5.41
2022-11-16T05:45:51.262Z,5.43
2022-11-16T05:47:31.012Z,5.4
2022-11-16T05:49:10.768Z,5.39
2022-11-16T05:50:50.537Z,5.4
2022-11-16T05:52:30.321Z,5.42
2022-11-16T05:57:29.593Z,5.42
2022-11-16T05:59:09.367Z,5.45
2022-11-16T06:00:49.126Z,5.43
2022-11-16T06:02:28.888Z,5.44
2022-11-16T06:09:07.955Z,5.47
2022-11-16T06:10:47.698Z,5.46
2022-11-16T06:12:27.471Z,5.47
2022-11-16T06:14:07.245Z,5.47
2022-11-16T06:20:46.290Z,5.5
2022-11-16T06:30:44.885Z,5.53
2022-11-16T06:32:24.631Z,5.53
2022-11-16T06:34:04.402Z,5.55
2022-11-16T06:37:23.931Z,5.54
2022-11-16T06:39:03.709Z,5.55
2022-11-16T06:40:43.493Z,5.55
2022-11-16T06:42:23.752Z,5.57
2022-11-16T06:45:42.748Z,5.58
2022-11-16T06:47:22.531Z,5.58
2022-11-16T06:50:42.057Z,5.58
2022-11-16T06:52:21.814Z,5.59
2022-11-16T06:54:01.579Z,5.6
2022-11-16T06:55:41.337Z,5.59
2022-11-16T06:57:21.125Z,5.61
2022-11-16T06:59:00.869Z,5.62
2022-11-16T07:00:40.628Z,5.61
2022-11-16T07:02:20.451Z,5.61
2022-11-16T07:04:00.145Z,5.64
2022-11-16T07:05:39.931Z,5.63
2022-11-16T07:07:19.672Z,5.62
2022-11-16T07:10:39.195Z,5.65
2022-11-16T07:12:18.978Z,5.66
2022-11-16T07:13:58.736Z,5.64
2022-11-16T07:15:38.484Z,5.66
2022-11-16T07:18:58.128Z,5.66
2022-11-16T07:20:37.800Z,5.67
2022-11-16T07:22:17.563Z,5.68
2022-11-16T07:25:37.088Z,5.67
2022-11-16T07:27:16.849Z,5.68
2022-11-16T07:30:36.374Z,5.7
2022-11-16T07:33:55.900Z,5.69
2022-11-16T07:37:15.421Z,5.7
2022-11-16T07:40:34.952Z,5.71
2022-11-16T07:42:14.736Z,5.7
2022-11-16T07:43:54.491Z,5.72
2022-11-16T07:47:14.018Z,5.72
2022-11-16T07:48:53.785Z,5.73
2022-11-16T07:50:33.565Z,5.72
2022-11-16T07:52:13.300Z,5.74
2022-11-16T07:53:53.065Z,5.73
2022-11-16T07:57:12.599Z,5.75
2022-11-16T07:58:52.356Z,5.75
2022-11-16T08:00:32.123Z,5.75
2022-11-16T08:02:11.877Z,5.76
2022-11-16T08:03:51.650Z,5.77
2022-11-16T08:05:31.407Z,5.77
2022-11-16T08:07:11.174Z,5.76
2022-11-16T08:08:51.016Z,5.77
2022-11-16T08:10:30.742Z,5.78
2022-11-16T08:12:10.642Z,5.78
2022-11-16T08:13:50.223Z,5.79
2022-11-16T08:17:09.826Z,5.73
2022-11-16T08:18:49.517Z,5.83
2022-11-16T08:20:29.284Z,5.79
2022-11-16T08:22:09.105Z,5.79
2022-11-16T08:25:28.596Z,5.81
2022-11-16T08:27:08.338Z,5.82
2022-11-16T08:28:48.105Z,5.83
2022-11-16T08:30:27.906Z,5.82
2022-11-16T08:33:47.409Z,5.86
2022-11-16T08:37:06.987Z,5.83
2022-11-16T08:40:26.461Z,5.83
2022-11-16T08:42:06.230Z,5.86
2022-11-16T08:45:25.747Z,5.85
2022-11-16T08:47:05.514Z,5.87
2022-11-16T08:48:45.327Z,5.92
2022-11-16T08:50:25.037Z,5.86
2022-11-16T08:52:04.794Z,5.87
2022-11-16T08:53:44.553Z,5.86
2022-11-16T08:57:04.094Z,5.87
2022-11-16T08:58:43.846Z,5.89
2022-11-16T09:00:23.629Z,5.88
2022-11-16T09:02:03.383Z,5.91
2022-11-16T09:03:43.153Z,5.87
2022-11-16T09:07:02.706Z,5.88
2022-11-16T09:08:42.432Z,5.89
2022-11-16T09:12:02.056Z,5.91
2022-11-16T09:13:41.729Z,5.9
2022-11-16T09:15:21.488Z,5.91
2022-11-16T09:18:41.021Z,5.92
2022-11-16T09:20:20.791Z,5.92
2022-11-16T09:22:00.561Z,5.95
2022-11-16T09:23:40.310Z,5.92
2022-11-16T09:25:20.081Z,5.94
2022-11-16T09:26:59.851Z,5.94
2022-11-16T09:28:39.610Z,5.96
2022-11-16T09:30:19.361Z,5.95
2022-11-16T09:31:59.137Z,5.99
2022-11-16T09:33:38.926Z,6
2022-11-16T09:35:18.655Z,6
2022-11-16T09:36:58.415Z,6
2022-11-16T09:40:17.956Z,6.02
2022-11-16T09:41:57.808Z,5.98
2022-11-16T09:43:37.477Z,6.01
2022-11-16T09:45:17.235Z,6
2022-11-16T09:46:57.010Z,6
2022-11-16T09:48:36.766Z,6.01
2022-11-16T09:50:16.541Z,6.02
2022-11-16T09:51:56.308Z,5.97
2022-11-16T09:53:36.085Z,6.05
2022-11-16T09:55:15.831Z,6.05
2022-11-16T09:56:55.598Z,6.06
2022-11-16T09:58:35.361Z,6.03
2022-11-16T10:00:15.100Z,5.99
2022-11-16T10:01:54.913Z,6.05
2022-11-16T10:03:34.638Z,6.06
2022-11-16T10:05:14.416Z,6
2022-11-16T10:06:54.178Z,6.02
2022-11-16T10:08:33.930Z,6.04
2022-11-16T10:10:13.908Z,6.03
2022-11-16T10:11:53.471Z,6.01
2022-11-16T10:13:33.233Z,6.02
2022-11-16T10:15:12.993Z,6
2022-11-16T10:16:52.758Z,6.02
2022-11-16T10:18:32.509Z,6.02
2022-11-16T10:21:52.065Z,6.02
2022-11-16T10:23:31.829Z,5.99
2022-11-16T10:25:11.577Z,6.02
2022-11-16T10:26:51.340Z,6.06
2022-11-16T10:28:31.114Z,6.03
2022-11-16T10:30:10.879Z,6.05
2022-11-16T10:31:50.684Z,6.04
2022-11-16T10:33:30.594Z,6.05
2022-11-16T10:35:10.233Z,6.02
2022-11-16T10:36:49.920Z,6.03
2022-11-16T10:38:29.710Z,6.08
2022-11-16T10:40:09.458Z,6.04
2022-11-16T10:41:49.211Z,6.02
2022-11-16T10:43:28.978Z,6.04
2022-11-16T10:45:08.734Z,6.07
2022-11-16T10:46:48.513Z,6.06
2022-11-16T10:48:28.266Z,6.05
2022-11-16T10:50:08.032Z,6.07
2022-11-16T10:51:47.808Z,6.12
2022-11-16T10:53:27.575Z,6.12
2022-11-16T10:56:47.088Z,6.11
2022-11-16T11:00:06.624Z,6.12
2022-11-16T11:03:26.145Z,6.13
2022-11-16T11:06:45.680Z,6.15
2022-11-16T11:11:44.967Z,6.15
2022-11-16T11:13:24.732Z,6.14
2022-11-16T11:15:04.505Z,6.16
2022-11-16T11:16:44.264Z,6.17
2022-11-16T11:18:24.015Z,6.15
2022-11-16T11:20:03.780Z,6.15
2022-11-16T11:21:43.551Z,6.14
2022-11-16T11:23:23.306Z,6.14
2022-11-16T11:25:03.069Z,6.15
2022-11-16T11:26:42.845Z,6.13
2022-11-16T11:28:22.627Z,6.12
2022-11-16T11:30:02.366Z,6.12
2022-11-16T11:31:42.137Z,6.1
2022-11-16T11:33:21.904Z,6.13
2022-11-16T11:36:41.422Z,6.1
2022-11-16T11:38:21.178Z,6.1
2022-11-16T11:40:00.955Z,6.11
2022-11-16T11:41:40.710Z,6.1
2022-11-16T11:43:20.465Z,6.1
2022-11-16T11:45:00.235Z,6.09
2022-11-16T11:46:40.013Z,6.09
2022-11-16T11:48:19.761Z,6.11
2022-11-16T11:49:59.539Z,6.09
2022-11-16T11:51:39.283Z,6.1
2022-11-16T11:53:19.053Z,6.09
2022-11-16T11:54:58.818Z,6.05
2022-11-16T11:56:38.597Z,6.07
2022-11-16T11:58:18.359Z,6.1
2022-11-16T11:59:58.116Z,6.11
2022-11-16T12:01:37.877Z,6.11
2022-11-16T12:03:17.658Z,6.11
2022-11-16T12:04:57.408Z,6.11
2022-11-16T12:06:37.177Z,6.12
2022-11-16T12:08:16.944Z,6.12
2022-11-16T12:09:56.706Z,6.12
2022-11-16T12:11:36.462Z,6.12
2022-11-16T12:13:16.223Z,6.12
2022-11-16T12:14:55.982Z,6.12
2022-11-16T12:16:35.740Z,6.12
2022-11-16T12:19:55.280Z,6.11
2022-11-16T12:21:35.052Z,6.12
2022-11-16T12:23:14.811Z,6.14
2022-11-16T12:24:54.634Z,6.13
2022-11-16T12:26:34.349Z,6.14
2022-11-16T12:29:53.867Z,6.13
2022-11-16T12:31:33.634Z,6.13
2022-11-16T12:33:13.393Z,6.13
2022-11-16T12:36:32.918Z,6.12
2022-11-16T12:38:12.672Z,6.15
2022-11-16T12:39:52.447Z,6.16
2022-11-16T12:41:32.219Z,6.14
2022-11-16T12:43:11.979Z,6.15
2022-11-16T12:49:51.031Z,6.13
2022-11-16T12:51:30.795Z,6.13
2022-11-16T12:53:10.565Z,6.13
2022-11-16T12:56:30.089Z,6.13
2022-11-16T12:58:09.846Z,6.13
2022-11-16T12:59:49.610Z,6.15
2022-11-16T13:01:29.375Z,6.13
2022-11-16T13:04:48.915Z,6.12
2022-11-16T13:06:28.676Z,6.15
2022-11-16T13:11:27.959Z,6.13
2022-11-16T13:13:07.732Z,6.14
2022-11-16T13:14:47.488Z,6.15
2022-11-16T13:16:27.248Z,6.15
2022-11-16T13:18:07.028Z,6.15
2022-11-16T13:19:46.776Z,6.14
2022-11-16T13:21:26.544Z,6.16
2022-11-16T13:23:06.304Z,6.13
2022-11-16T13:24:46.112Z,6.14
2022-11-16T13:28:05.594Z,6.16
2022-11-16T13:29:45.360Z,6.15
2022-11-16T13:31:25.135Z,6.16
2022-11-16T13:33:04.887Z,6.17
2022-11-16T13:36:24.413Z,6.16
2022-11-16T13:38:04.189Z,6.16
2022-11-16T13:39:43.941Z,6.14
2022-11-16T13:41:23.710Z,6.13
2022-11-16T13:43:03.470Z,6.15
2022-11-16T13:44:43.242Z,6.14
2022-11-16T13:46:23.006Z,6.15
2022-11-16T13:48:02.775Z,6.16
2022-11-16T13:49:42.519Z,6.17
2022-11-16T13:51:22.284Z,6.17
2022-11-16T13:53:02.059Z,6.15
2022-11-16T13:56:21.592Z,6.15
2022-11-16T13:59:41.108Z,6.15
2022-11-16T14:01:20.884Z,6.14
2022-11-16T14:03:00.636Z,6.14
2022-11-16T14:06:20.166Z,6.15
2022-11-16T14:07:59.930Z,6.14
2022-11-16T14:09:39.683Z,6.15
2022-11-16T14:11:19.461Z,6.15
2022-11-16T14:12:59.222Z,6.12
2022-11-16T14:16:18.741Z,6.13
2022-11-16T14:17:58.504Z,6.16
2022-11-16T14:19:38.278Z,6.14
2022-11-16T14:22:57.810Z,6.14
2022-11-16T14:26:17.331Z,6.14
2022-11-16T14:29:36.850Z,6.13
2022-11-16T14:31:16.629Z,6.13
2022-11-16T14:32:56.378Z,6.14
2022-11-16T14:34:36.213Z,6.15
2022-11-16T14:36:15.936Z,6.14
2022-11-16T14:37:55.664Z,6.15
2022-11-16T14:39:35.435Z,6.12
2022-11-16T14:41:15.205Z,6.15
2022-11-16T14:42:54.965Z,6.14
2022-11-16T14:44:34.723Z,6.16
2022-11-16T14:46:14.532Z,6.15
2022-11-16T14:49:34.020Z,6.15
2022-11-16T14:51:13.796Z,6.15
2022-11-16T14:52:53.576Z,6.14
2022-11-16T14:54:33.319Z,6.14
2022-11-16T14:56:13.089Z,6.15
2022-11-16T14:57:52.848Z,6.12
2022-11-16T14:59:32.606Z,6.13
2022-11-16T15:01:12.371Z,6.14
2022-11-16T15:02:52.162Z,6.13
2022-11-16T15:04:31.912Z,6.13
2022-11-16T15:07:51.421Z,6.13
2022-11-16T15:09:31.195Z,6.17
2022-11-16T15:11:10.945Z,6.12
2022-11-16T15:12:50.835Z,6.11
2022-11-16T15:14:30.475Z,6.12
2022-11-16T15:16:10.262Z,6.13
2022-11-16T15:17:50.013Z,6.13
2022-11-16T15:19:29.770Z,6.13
2022-11-16T15:22:49.298Z,6.11
2022-11-16T15:24:29.083Z,6.11
2022-11-16T15:26:08.818Z,6.11
2022-11-16T15:27:48.587Z,6.08
2022-11-16T15:29:28.400Z,6.12
2022-11-16T15:32:47.890Z,6.11
2022-11-16T15:34:27.666Z,6.1
2022-11-16T15:36:07.528Z,6.08
2022-11-16T15:37:47.220Z,6.1
2022-11-16T15:39:26.925Z,6.1
2022-11-16T15:42:46.473Z,6.07
2022-11-16T15:44:26.240Z,6.06
2022-11-16T15:46:05.992Z,6.07
2022-11-16T15:47:45.753Z,6.06
2022-11-16T15:49:25.544Z,6.06
2022-11-16T15:51:05.356Z,6.06
2022-11-16T15:52:45.049Z,6.05
2022-11-16T15:54:24.808Z,6.04
2022-11-16T15:56:04.610Z,6.05
2022-11-16T15:59:24.108Z,6.03
2022-11-16T16:01:03.874Z,6.02
2022-11-16T16:02:43.644Z,6.05
2022-11-16T16:04:23.412Z,6.01
2022-11-16T16:06:03.157Z,6.03
2022-11-16T16:07:42.928Z,6.03
2022-11-16T16:09:22.682Z,6.01
2022-11-16T16:11:02.454Z,5.99
2022-11-16T16:14:22.095Z,5.99
2022-11-16T16:16:01.737Z,5.99
2022-11-16T16:17:41.509Z,6
2022-11-16T16:19:21.268Z,6
2022-11-16T16:21:01.029Z,6
2022-11-16T16:22:40.794Z,6.02
2022-11-16T16:24:20.560Z,6
2022-11-16T16:26:00.425Z,6.02
2022-11-16T16:27:40.106Z,6
2022-11-16T16:29:19.860Z,6
2022-11-16T16:30:59.627Z,6
2022-11-16T16:32:39.450Z,6
2022-11-16T16:34:19.137Z,6
2022-11-16T16:35:58.911Z,6.02
2022-11-16T16:39:18.486Z,5.98
2022-11-16T16:40:58.207Z,6
2022-11-16T16:44:17.732Z,5.99
2022-11-16T16:45:57.588Z,5.98
2022-11-16T16:47:37.247Z,5.98
2022-11-16T16:49:17.021Z,5.98
2022-11-16T16:50:56.825Z,5.99
2022-11-16T16:52:36.612Z,5.98
2022-11-16T16:54:16.309Z,5.99
2022-11-16T16:55:56.144Z,5.98
2022-11-16T16:57:35.846Z,5.97
2022-11-16T17:00:55.399Z,6.02
2022-11-16T17:02:35.126Z,5.99
2022-11-16T17:05:54.654Z,5.96
2022-11-16T17:07:34.434Z,5.98
2022-11-16T17:09:14.180Z,5.98
2022-11-16T17:10:54.004Z,5.98
2022-11-16T17:15:53.240Z,5.99
2022-11-16T17:19:12.769Z,5.99
2022-11-16T17:20:52.532Z,6
2022-11-16T17:22:32.297Z,5.99
2022-11-16T17:24:12.068Z,5.98
2022-11-16T17:25:51.851Z,5.99
2022-11-16T17:29:11.359Z,6
2022-11-16T17:30:51.113Z,5.99
2022-11-16T17:34:10.646Z,5.99
2022-11-16T17:35:50.399Z,5.99
2022-11-16T17:37:30.171Z,6
2022-11-16T17:39:09.940Z,5.99
2022-11-16T17:40:49.719Z,5.97
2022-11-16T17:42:29.511Z,5.97
2022-11-16T17:44:09.242Z,5.98
2022-11-16T17:45:48.994Z,5.96
2022-11-16T17:47:28.767Z,5.98
2022-11-16T17:49:08.526Z,5.97
2022-11-16T17:50:48.291Z,5.97
2022-11-16T17:52:28.056Z,5.97
2022-11-16T17:55:47.565Z,5.97
2022-11-16T17:57:27.325Z,5.99
2022-11-16T17:59:07.116Z,5.96
2022-11-16T18:00:46.855Z,5.96
2022-11-16T18:02:26.766Z,5.97
2022-11-16T18:07:25.920Z,5.93
2022-11-16T18:09:05.684Z,5.95
2022-11-16T18:10:45.452Z,5.95
2022-11-16T18:12:25.217Z,5.94
2022-11-16T18:14:04.976Z,5.94
2022-11-16T18:15:44.729Z,5.93
2022-11-16T18:17:24.514Z,5.93
2022-11-16T18:20:44.026Z,5.93
2022-11-16T18:22:23.839Z,5.93
2022-11-16T18:25:43.316Z,5.94
2022-11-16T18:27:23.127Z,5.92
2022-11-16T18:29:02.855Z,5.93
2022-11-16T18:30:42.654Z,5.93
2022-11-16T18:32:22.376Z,5.92
2022-11-16T18:34:02.180Z,5.92
2022-11-16T18:35:41.910Z,5.9
2022-11-16T18:37:21.735Z,5.91
2022-11-16T18:39:01.426Z,5.91
2022-11-16T18:40:41.239Z,5.9
2022-11-16T18:42:20.958Z,5.9
2022-11-16T18:44:00.734Z,5.91
2022-11-16T18:45:40.483Z,5.91
2022-11-16T18:47:20.329Z,5.91
2022-11-16T18:49:00.021Z,5.9
2022-11-16T18:50:39.787Z,5.89
2022-11-16T18:52:19.555Z,5.91
2022-11-16T18:53:59.378Z,5.89
2022-11-16T18:55:39.090Z,5.9
2022-11-16T18:57:18.838Z,5.9
2022-11-16T18:58:58.721Z,5.89
2022-11-16T19:00:38.369Z,5.88
2022-11-16T19:02:18.144Z,5.89
2022-11-16T19:05:37.725Z,5.89
2022-11-16T19:07:17.418Z,5.88
2022-11-16T19:08:57.239Z,5.88
2022-11-16T19:12:16.712Z,5.9
2022-11-16T19:15:36.228Z,5.87
2022-11-16T19:17:15.994Z,5.85
2022-11-16T19:18:55.871Z,5.88
2022-11-16T19:22:15.392Z,5.86
2022-11-16T19:23:55.106Z,5.85
2022-11-16T19:25:34.825Z,5.85
2022-11-16T19:27:14.722Z,5.87
2022-11-16T19:28:54.368Z,5.87
2022-11-16T19:30:34.120Z,5.85
2022-11-16T19:32:14.041Z,5.85
2022-11-16T19:33:53.645Z,5.83
2022-11-16T19:35:33.404Z,5.84
2022-11-16T19:37:13.173Z,5.85
2022-11-16T19:38:52.975Z,5.85
2022-11-16T19:40:32.696Z,5.85
2022-11-16T19:42:12.468Z,5.84
2022-11-16T19:43:52.221Z,5.85
2022-11-16T19:45:32.004Z,5.83
2022-11-16T19:47:11.795Z,5.81
2022-11-16T19:48:51.579Z,5.81
2022-11-16T19:50:31.306Z,5.82
2022-11-16T19:52:11.036Z,5.82
2022-11-16T19:53:50.820Z,5.79
2022-11-16T19:55:30.574Z,5.81
2022-11-16T19:57:10.327Z,5.8
2022-11-16T19:58:50.124Z,5.8
2022-11-16T20:00:29.864Z,5.81
2022-11-16T20:02:09.634Z,5.85
2022-11-16T20:03:49.404Z,5.82
2022-11-16T20:05:29.144Z,5.82
2022-11-16T20:08:48.730Z,5.8
2022-11-16T20:10:28.446Z,5.81
2022-11-16T20:12:08.196Z,5.79
2022-11-16T20:13:47.983Z,5.78
2022-11-16T20:15:27.793Z,5.79
2022-11-16T20:17:07.511Z,5.79
2022-11-16T20:18:47.268Z,5.79
2022-11-16T20:20:27.045Z,5.78
2022-11-16T20:22:06.805Z,5.8
2022-11-16T20:23:46.558Z,5.79
2022-11-16T20:25:26.316Z,5.78
2022-11-16T20:27:06.118Z,5.78
2022-11-16T20:28:45.895Z,5.77
2022-11-16T20:30:25.599Z,5.76
2022-11-16T20:32:05.385Z,5.77
2022-11-16T20:33:45.129Z,5.77
2022-11-16T20:35:24.895Z,5.75
2022-11-16T20:37:04.680Z,5.75
2022-11-16T20:38:44.424Z,5.75
2022-11-16T20:40:24.192Z,5.73
2022-11-16T20:42:04.021Z,5.72
2022-11-16T20:43:43.711Z,5.73
2022-11-16T20:45:23.472Z,5.73
2022-11-16T20:47:03.270Z,5.7
2022-11-16T20:48:43.085Z,5.69
2022-11-16T20:50:22.776Z,5.72
2022-11-16T20:52:02.549Z,5.69
2022-11-16T20:53:42.345Z,5.68
2022-11-16T20:55:22.060Z,5.68
2022-11-16T20:57:01.863Z,5.65
2022-11-16T20:58:41.600Z,5.64
2022-11-16T21:00:21.370Z,5.65
2022-11-16T21:02:01.148Z,5.63
2022-11-16T21:03:40.944Z,5.63
2022-11-16T21:05:20.646Z,5.64
2022-11-16T21:07:00.423Z,5.6
2022-11-16T21:08:40.178Z,5.6
2022-11-16T21:10:19.936Z,5.61
2022-11-16T21:11:59.712Z,5.6
2022-11-16T21:15:19.229Z,5.59
2022-11-16T21:16:59.162Z,5.59
2022-11-16T21:18:38.835Z,5.5
2022-11-16T21:20:18.525Z,5.56
2022-11-16T21:25:17.970Z,5.55
2022-11-16T21:26:57.619Z,5.55
2022-11-16T21:28:37.336Z,5.56
2022-11-16T21:30:17.097Z,5.52
2022-11-16T21:31:57.048Z,5.54
2022-11-16T21:33:36.680Z,5.52
2022-11-16T21:35:16.389Z,5.52
2022-11-16T21:36:56.218Z,5.51
2022-11-16T21:38:35.956Z,5.52
2022-11-16T21:40:15.734Z,5.51
2022-11-16T21:41:55.495Z,5.5
2022-11-16T21:43:35.210Z,5.5
2022-11-16T21:45:15.010Z,5.49
2022-11-16T21:46:54.741Z,5.48
2022-11-16T21:48:34.505Z,5.47
2022-11-16T21:50:14.274Z,5.47
2022-11-16T21:51:54.034Z,5.45
2022-11-16T21:55:13.575Z,5.44
2022-11-16T21:56:53.327Z,5.43
2022-11-16T21:58:33.089Z,5.42
2022-11-16T22:00:12.843Z,5.41
2022-11-16T22:03:32.391Z,5.37
2022-11-16T22:05:12.173Z,5.38
2022-11-16T22:06:51.898Z,5.38
2022-11-16T22:08:31.669Z,5.37
2022-11-16T22:10:11.483Z,5.36
2022-11-16T22:11:51.202Z,5.36
2022-11-16T22:13:30.952Z,5.34
2022-11-16T22:15:10.727Z,5.34
2022-11-16T22:16:50.585Z,5.33
2022-11-16T22:18:30.248Z,5.33
2022-11-16T22:21:49.863Z,5.31
2022-11-16T22:25:09.311Z,5.29
2022-11-16T22:28:28.845Z,5.28
2022-11-16T22:30:08.599Z,5.27
2022-11-16T22:31:48.368Z,5.27
2022-11-16T22:33:28.158Z,5.25
2022-11-16T22:35:07.888Z,5.26
2022-11-16T22:36:47.654Z,5.26
2022-11-16T22:38:27.547Z,5.22
2022-11-16T22:40:07.187Z,5.22
2022-11-16T22:41:46.958Z,5.23
2022-11-16T22:43:26.718Z,5.23
2022-11-16T22:45:06.487Z,5.22
2022-11-16T22:46:46.247Z,5.2
2022-11-16T22:48:26.030Z,5.2
2022-11-16T22:50:05.768Z,5.21
2022-11-16T22:51:45.528Z,5.19
2022-11-16T22:53:25.298Z,5.19
2022-11-16T22:55:05.064Z,5.17
2022-11-16T22:58:24.612Z,5.15
2022-11-16T23:00:04.386Z,5.16
2022-11-16T23:01:44.207Z,5.15
2022-11-16T23:05:03.683Z,5.12
2022-11-16T23:06:43.416Z,5.12
2022-11-16T23:08:23.171Z,5.11
2022-11-16T23:10:02.933Z,5.1
2022-11-16T23:11:42.692Z,5.1
2022-11-16T23:13:22.452Z,5.07
2022-11-16T23:15:02.223Z,5.04
2022-11-16T23:16:42.000Z,5.06
2022-11-16T23:18:21.762Z,5.05
2022-11-16T23:20:01.648Z,5.02
2022-11-16T23:21:41.289Z,5.07
2022-11-16T23:25:00.822Z,5
2022-11-16T23:26:40.565Z,4.98
2022-11-16T23:28:20.347Z,4.98
2022-11-16T23:30:00.104Z,4.96
2022-11-16T23:31:39.929Z,4.96
2022-11-16T23:34:59.484Z,4.94
2022-11-16T23:38:18.969Z,4.88
2022-11-16T23:43:18.280Z,4.84
2022-11-16T23:44:57.970Z,4.85
2022-11-16T23:48:17.511Z,4.82
2022-11-16T23:49:57.266Z,4.8
2022-11-16T23:51:37.034Z,4.79
2022-11-16T23:54:56.572Z,4.77
2022-11-16T23:56:36.336Z,4.76
2022-11-16T23:58:16.134Z,4.73
